sensor_id;sensor_type;location;lat;lon;timestamp;pressure;altitude;pressure_sealevel;temperature;humidity
84995;BME280;75312;47.528;19.016;2024-01-06T00:00:05;98037.00;;;6.91;71.69
84995;BME280;75312;47.528;19.016;2024-01-06T00:00:36;98045.47;;;6.93;72.05
84995;BME280;75312;47.528;19.016;2024-01-06T00:01:10;98038.25;;;6.87;71.50
84995;BME280;75312;47.528;19.016;2024-01-06T00:01:42;98038.53;;;7.02;71.02
84995;BME280;75312;47.528;19.016;2024-01-06T00:02:15;98043.75;;;7.02;70.97
84995;BME280;75312;47.528;19.016;2024-01-06T00:02:45;98040.16;;;7.03;71.00
84995;BME280;75312;47.528;19.016;2024-01-06T00:03:19;98037.41;;;7.04;70.35
84995;BME280;75312;47.528;19.016;2024-01-06T00:03:50;98041.13;;;7.02;70.40
84995;BME280;75312;47.528;19.016;2024-01-06T00:04:20;98036.75;;;7.02;69.64
84995;BME280;75312;47.528;19.016;2024-01-06T00:04:51;98034.13;;;7.02;69.93
84995;BME280;75312;47.528;19.016;2024-01-06T00:05:21;98035.13;;;7.01;69.92
84995;BME280;75312;47.528;19.016;2024-01-06T00:05:52;98041.72;;;6.96;70.40
84995;BME280;75312;47.528;19.016;2024-01-06T00:06:23;98042.84;;;6.93;70.50
84995;BME280;75312;47.528;19.016;2024-01-06T00:06:57;98034.22;;;6.93;70.85
84995;BME280;75312;47.528;19.016;2024-01-06T00:07:27;98033.16;;;7.03;70.36
84995;BME280;75312;47.528;19.016;2024-01-06T00:08:00;98032.88;;;7.07;70.21
84995;BME280;75312;47.528;19.016;2024-01-06T00:08:38;98032.94;;;7.15;70.18
84995;BME280;75312;47.528;19.016;2024-01-06T00:09:08;98036.22;;;7.17;69.71
84995;BME280;75312;47.528;19.016;2024-01-06T00:09:41;98033.13;;;7.21;69.31
84995;BME280;75312;47.528;19.016;2024-01-06T00:10:11;98034.00;;;7.30;69.03
84995;BME280;75312;47.528;19.016;2024-01-06T00:10:42;98033.66;;;7.25;69.13
84995;BME280;75312;47.528;19.016;2024-01-06T00:11:16;98033.28;;;7.20;69.19
84995;BME280;75312;47.528;19.016;2024-01-06T00:11:51;98031.81;;;7.17;69.70
84995;BME280;75312;47.528;19.016;2024-01-06T00:12:25;98031.81;;;7.17;69.39
84995;BME280;75312;47.528;19.016;2024-01-06T00:12:55;98029.88;;;7.19;69.92
84995;BME280;75312;47.528;19.016;2024-01-06T00:13:26;98028.91;;;7.20;69.72
84995;BME280;75312;47.528;19.016;2024-01-06T00:13:57;98026.44;;;7.19;70.00
84995;BME280;75312;47.528;19.016;2024-01-06T00:14:27;98031.00;;;7.17;69.98
84995;BME280;75312;47.528;19.016;2024-01-06T00:14:58;98030.78;;;7.10;69.78
84995;BME280;75312;47.528;19.016;2024-01-06T00:15:28;98022.81;;;7.12;70.00
84995;BME280;75312;47.528;19.016;2024-01-06T00:16:00;98022.00;;;7.11;70.12
84995;BME280;75312;47.528;19.016;2024-01-06T00:16:36;98022.38;;;7.16;69.78
84995;BME280;75312;47.528;19.016;2024-01-06T00:17:07;98019.59;;;7.18;69.64
84995;BME280;75312;47.528;19.016;2024-01-06T00:17:37;98023.84;;;7.19;69.88
84995;BME280;75312;47.528;19.016;2024-01-06T00:18:08;98024.50;;;7.21;69.85
84995;BME280;75312;47.528;19.016;2024-01-06T00:18:39;98026.13;;;7.22;69.39
84995;BME280;75312;47.528;19.016;2024-01-06T00:19:10;98020.25;;;7.20;70.01
84995;BME280;75312;47.528;19.016;2024-01-06T00:19:41;98018.78;;;7.17;69.63
84995;BME280;75312;47.528;19.016;2024-01-06T00:20:14;98020.75;;;7.15;70.43
84995;BME280;75312;47.528;19.016;2024-01-06T00:20:44;98022.22;;;7.18;69.59
84995;BME280;75312;47.528;19.016;2024-01-06T00:21:17;98016.47;;;7.14;69.96
84995;BME280;75312;47.528;19.016;2024-01-06T00:21:48;98009.94;;;7.10;70.30
84995;BME280;75312;47.528;19.016;2024-01-06T00:22:21;98020.06;;;7.13;69.95
84995;BME280;75312;47.528;19.016;2024-01-06T00:22:51;98017.59;;;7.12;70.45
84995;BME280;75312;47.528;19.016;2024-01-06T00:23:24;98019.72;;;7.08;70.17
84995;BME280;75312;47.528;19.016;2024-01-06T00:23:55;98021.50;;;7.08;70.93
84995;BME280;75312;47.528;19.016;2024-01-06T00:24:28;98016.13;;;7.09;70.84
84995;BME280;75312;47.528;19.016;2024-01-06T00:24:59;98016.28;;;7.08;70.66
84995;BME280;75312;47.528;19.016;2024-01-06T00:25:32;98013.00;;;7.05;70.62
84995;BME280;75312;47.528;19.016;2024-01-06T00:26:05;98016.22;;;6.99;70.58
84995;BME280;75312;47.528;19.016;2024-01-06T00:26:38;98017.47;;;6.95;71.13
84995;BME280;75312;47.528;19.016;2024-01-06T00:27:11;98019.22;;;6.87;71.69
84995;BME280;75312;47.528;19.016;2024-01-06T00:27:42;98017.94;;;6.91;71.34
84995;BME280;75312;47.528;19.016;2024-01-06T00:28:12;98015.19;;;6.92;71.87
84995;BME280;75312;47.528;19.016;2024-01-06T00:28:45;98017.31;;;6.97;71.21
84995;BME280;75312;47.528;19.016;2024-01-06T00:29:17;98012.13;;;6.97;71.57
84995;BME280;75312;47.528;19.016;2024-01-06T00:29:48;98016.81;;;6.93;71.46
84995;BME280;75312;47.528;19.016;2024-01-06T00:30:18;98013.25;;;6.94;70.99
84995;BME280;75312;47.528;19.016;2024-01-06T00:30:49;98016.31;;;6.90;71.62
84995;BME280;75312;47.528;19.016;2024-01-06T00:31:20;98013.19;;;6.86;71.62
84995;BME280;75312;47.528;19.016;2024-01-06T00:31:51;98012.53;;;6.84;71.83
84995;BME280;75312;47.528;19.016;2024-01-06T00:32:21;98014.41;;;6.74;72.86
84995;BME280;75312;47.528;19.016;2024-01-06T00:32:54;98026.22;;;6.68;72.76
84995;BME280;75312;47.528;19.016;2024-01-06T00:33:27;98018.50;;;6.59;73.16
84995;BME280;75312;47.528;19.016;2024-01-06T00:33:58;98018.66;;;6.57;73.34
84995;BME280;75312;47.528;19.016;2024-01-06T00:34:28;98018.75;;;6.56;73.30
84995;BME280;75312;47.528;19.016;2024-01-06T00:35:01;98024.28;;;6.53;73.42
84995;BME280;75312;47.528;19.016;2024-01-06T00:35:32;98024.81;;;6.56;73.04
84995;BME280;75312;47.528;19.016;2024-01-06T00:36:07;98025.91;;;6.54;73.18
84995;BME280;75312;47.528;19.016;2024-01-06T00:36:38;98024.44;;;6.51;73.92
84995;BME280;75312;47.528;19.016;2024-01-06T00:37:10;98024.19;;;6.44;74.06
84995;BME280;75312;47.528;19.016;2024-01-06T00:37:41;98026.72;;;6.36;74.37
84995;BME280;75312;47.528;19.016;2024-01-06T00:38:12;98021.59;;;6.44;74.53
84995;BME280;75312;47.528;19.016;2024-01-06T00:38:42;98019.00;;;6.44;74.25
84995;BME280;75312;47.528;19.016;2024-01-06T00:39:13;98020.41;;;6.39;74.36
84995;BME280;75312;47.528;19.016;2024-01-06T00:39:43;98014.25;;;6.40;74.39
84995;BME280;75312;47.528;19.016;2024-01-06T00:40:16;98016.91;;;6.30;75.22
84995;BME280;75312;47.528;19.016;2024-01-06T00:40:49;98019.66;;;6.29;75.15
84995;BME280;75312;47.528;19.016;2024-01-06T00:41:19;98013.78;;;6.27;75.28
84995;BME280;75312;47.528;19.016;2024-01-06T00:41:50;98017.03;;;6.29;74.82
84995;BME280;75312;47.528;19.016;2024-01-06T00:42:20;98014.59;;;6.27;75.18
84995;BME280;75312;47.528;19.016;2024-01-06T00:42:51;98017.75;;;6.31;74.92
84995;BME280;75312;47.528;19.016;2024-01-06T00:43:22;98009.56;;;6.26;75.69
84995;BME280;75312;47.528;19.016;2024-01-06T00:43:52;98009.69;;;6.24;75.36
84995;BME280;75312;47.528;19.016;2024-01-06T00:44:25;98010.50;;;6.25;75.58
84995;BME280;75312;47.528;19.016;2024-01-06T00:44:55;98008.28;;;6.30;75.13
84995;BME280;75312;47.528;19.016;2024-01-06T00:45:26;98010.06;;;6.29;75.40
84995;BME280;75312;47.528;19.016;2024-01-06T00:46:01;98012.38;;;6.32;75.09
84995;BME280;75312;47.528;19.016;2024-01-06T00:46:34;98015.72;;;6.42;74.85
84995;BME280;75312;47.528;19.016;2024-01-06T00:47:04;98004.34;;;6.43;74.77
84995;BME280;75312;47.528;19.016;2024-01-06T00:47:38;98009.88;;;6.40;75.11
84995;BME280;75312;47.528;19.016;2024-01-06T00:48:11;98011.13;;;6.36;75.61
84995;BME280;75312;47.528;19.016;2024-01-06T00:48:41;98012.09;;;6.35;75.42
84995;BME280;75312;47.528;19.016;2024-01-06T00:49:12;98013.34;;;6.31;75.72
84995;BME280;75312;47.528;19.016;2024-01-06T00:49:45;98009.09;;;6.30;75.61
84995;BME280;75312;47.528;19.016;2024-01-06T00:50:15;98015.97;;;6.31;75.52
84995;BME280;75312;47.528;19.016;2024-01-06T00:50:51;98005.16;;;6.26;75.48
84995;BME280;75312;47.528;19.016;2024-01-06T00:51:22;98012.38;;;6.32;74.69
84995;BME280;75312;47.528;19.016;2024-01-06T00:51:53;98012.75;;;6.37;74.29
84995;BME280;75312;47.528;19.016;2024-01-06T00:52:23;98014.09;;;6.41;74.10
84995;BME280;75312;47.528;19.016;2024-01-06T00:52:56;98005.31;;;6.42;74.06
84995;BME280;75312;47.528;19.016;2024-01-06T00:53:27;98004.50;;;6.42;73.82
84995;BME280;75312;47.528;19.016;2024-01-06T00:53:59;98002.88;;;6.41;74.00
84995;BME280;75312;47.528;19.016;2024-01-06T00:54:30;98001.38;;;6.38;74.15
84995;BME280;75312;47.528;19.016;2024-01-06T00:55:01;98002.06;;;6.40;73.79
84995;BME280;75312;47.528;19.016;2024-01-06T00:55:31;98003.03;;;6.39;74.38
84995;BME280;75312;47.528;19.016;2024-01-06T00:56:02;98001.53;;;6.37;73.92
84995;BME280;75312;47.528;19.016;2024-01-06T00:56:33;98006.56;;;6.38;73.98
84995;BME280;75312;47.528;19.016;2024-01-06T00:57:04;97998.66;;;6.40;74.06
84995;BME280;75312;47.528;19.016;2024-01-06T00:57:34;98006.28;;;6.41;74.47
84995;BME280;75312;47.528;19.016;2024-01-06T00:58:05;98008.09;;;6.41;73.87
84995;BME280;75312;47.528;19.016;2024-01-06T00:58:38;98007.94;;;6.42;74.07
84995;BME280;75312;47.528;19.016;2024-01-06T00:59:09;98010.38;;;6.44;74.32
84995;BME280;75312;47.528;19.016;2024-01-06T00:59:42;98011.19;;;6.44;73.74
84995;BME280;75312;47.528;19.016;2024-01-06T01:00:15;98018.50;;;6.41;73.82
84995;BME280;75312;47.528;19.016;2024-01-06T01:00:46;98009.72;;;6.42;74.16
84995;BME280;75312;47.528;19.016;2024-01-06T01:01:16;97999.66;;;6.47;74.00
84995;BME280;75312;47.528;19.016;2024-01-06T01:01:49;98004.19;;;6.45;73.44
84995;BME280;75312;47.528;19.016;2024-01-06T01:02:20;98006.97;;;6.43;73.51
84995;BME280;75312;47.528;19.016;2024-01-06T01:02:50;98006.97;;;6.43;73.60
84995;BME280;75312;47.528;19.016;2024-01-06T01:03:21;98008.59;;;6.44;73.56
84995;BME280;75312;47.528;19.016;2024-01-06T01:03:52;98011.19;;;6.44;73.94
84995;BME280;75312;47.528;19.016;2024-01-06T01:04:22;98006.97;;;6.43;73.74
84995;BME280;75312;47.528;19.016;2024-01-06T01:04:55;98006.66;;;6.46;73.74
84995;BME280;75312;47.528;19.016;2024-01-06T01:05:27;98007.63;;;6.45;73.67
84995;BME280;75312;47.528;19.016;2024-01-06T01:05:58;98002.56;;;6.44;73.80
84995;BME280;75312;47.528;19.016;2024-01-06T01:06:31;98009.41;;;6.45;74.04
84995;BME280;75312;47.528;19.016;2024-01-06T01:07:01;98009.41;;;6.45;73.63
84995;BME280;75312;47.528;19.016;2024-01-06T01:07:34;98010.06;;;6.47;73.61
84995;BME280;75312;47.528;19.016;2024-01-06T01:08:10;98006.81;;;6.45;73.84
84995;BME280;75312;47.528;19.016;2024-01-06T01:08:45;98003.38;;;6.44;74.38
84995;BME280;75312;47.528;19.016;2024-01-06T01:09:18;97999.31;;;6.42;73.70
84995;BME280;75312;47.528;19.016;2024-01-06T01:09:48;98007.78;;;6.44;74.28
84995;BME280;75312;47.528;19.016;2024-01-06T01:10:19;98000.94;;;6.43;73.75
84995;BME280;75312;47.528;19.016;2024-01-06T01:10:52;97999.16;;;6.43;74.34
84995;BME280;75312;47.528;19.016;2024-01-06T01:11:25;97999.97;;;6.44;73.53
84995;BME280;75312;47.528;19.016;2024-01-06T01:11:56;98004.34;;;6.43;73.60
84995;BME280;75312;47.528;19.016;2024-01-06T01:12:27;97997.53;;;6.42;74.00
84995;BME280;75312;47.528;19.016;2024-01-06T01:12:57;97999.81;;;6.45;73.80
84995;BME280;75312;47.528;19.016;2024-01-06T01:13:28;97999.81;;;6.45;74.36
84995;BME280;75312;47.528;19.016;2024-01-06T01:13:58;98003.09;;;6.47;74.04
84995;BME280;75312;47.528;19.016;2024-01-06T01:14:29;98003.94;;;6.48;73.57
84995;BME280;75312;47.528;19.016;2024-01-06T01:14:59;98002.41;;;6.45;73.91
84995;BME280;75312;47.528;19.016;2024-01-06T01:15:32;97999.81;;;6.45;74.08
84995;BME280;75312;47.528;19.016;2024-01-06T01:16:06;98005.03;;;6.45;74.49
84995;BME280;75312;47.528;19.016;2024-01-06T01:16:37;98002.41;;;6.45;74.36
84995;BME280;75312;47.528;19.016;2024-01-06T01:17:07;98001.44;;;6.46;74.52
84995;BME280;75312;47.528;19.016;2024-01-06T01:17:40;97999.16;;;6.43;73.99
84995;BME280;75312;47.528;19.016;2024-01-06T01:18:13;97993.94;;;6.43;74.29
84995;BME280;75312;47.528;19.016;2024-01-06T01:18:46;97995.75;;;6.43;74.12
84995;BME280;75312;47.528;19.016;2024-01-06T01:19:17;97998.34;;;6.43;73.97
84995;BME280;75312;47.528;19.016;2024-01-06T01:19:50;97995.75;;;6.43;74.49
84995;BME280;75312;47.528;19.016;2024-01-06T01:20:20;97992.31;;;6.42;74.71
84995;BME280;75312;47.528;19.016;2024-01-06T01:20:51;98001.25;;;6.40;74.44
84995;BME280;75312;47.528;19.016;2024-01-06T01:21:22;97993.88;;;6.35;74.46
84995;BME280;75312;47.528;19.016;2024-01-06T01:21:55;97997.94;;;6.38;74.65
84995;BME280;75312;47.528;19.016;2024-01-06T01:22:25;97989.88;;;6.41;74.17
84995;BME280;75312;47.528;19.016;2024-01-06T01:22:56;97988.38;;;6.38;74.67
84995;BME280;75312;47.528;19.016;2024-01-06T01:23:27;97997.44;;;6.34;75.15
84995;BME280;75312;47.528;19.016;2024-01-06T01:23:59;97988.97;;;6.32;74.83
84995;BME280;75312;47.528;19.016;2024-01-06T01:24:30;97996.94;;;6.31;75.06
84995;BME280;75312;47.528;19.016;2024-01-06T01:25:01;98003.06;;;6.30;75.04
84995;BME280;75312;47.528;19.016;2024-01-06T01:25:38;97994.75;;;6.26;74.88
84995;BME280;75312;47.528;19.016;2024-01-06T01:26:09;97998.19;;;6.27;74.78
84995;BME280;75312;47.528;19.016;2024-01-06T01:26:40;98000.63;;;6.28;75.17
84995;BME280;75312;47.528;19.016;2024-01-06T01:27:13;98000.47;;;6.30;74.81
84995;BME280;75312;47.528;19.016;2024-01-06T01:31:14;97989.63;;;6.34;74.32
84995;BME280;75312;47.528;19.016;2024-01-06T01:31:45;97987.84;;;6.35;74.56
84995;BME280;75312;47.528;19.016;2024-01-06T01:32:18;97995.22;;;6.39;75.10
84995;BME280;75312;47.528;19.016;2024-01-06T01:32:49;97993.72;;;6.37;74.57
84995;BME280;75312;47.528;19.016;2024-01-06T01:33:19;97996.78;;;6.32;75.45
84995;BME280;75312;47.528;19.016;2024-01-06T01:33:55;98002.81;;;6.33;75.26
84995;BME280;75312;47.528;19.016;2024-01-06T01:34:25;98001.00;;;6.33;75.43
84995;BME280;75312;47.528;19.016;2024-01-06T01:34:56;98000.72;;;6.36;74.93
84995;BME280;75312;47.528;19.016;2024-01-06T01:35:27;98003.78;;;6.32;75.06
84995;BME280;75312;47.528;19.016;2024-01-06T01:35:57;98000.47;;;6.30;75.56
84995;BME280;75312;47.528;19.016;2024-01-06T01:36:28;98001.97;;;6.32;75.34
84995;BME280;75312;47.528;19.016;2024-01-06T01:36:59;97997.44;;;6.34;75.54
84995;BME280;75312;47.528;19.016;2024-01-06T01:37:32;97998.78;;;6.38;75.81
84995;BME280;75312;47.528;19.016;2024-01-06T01:38:06;97992.47;;;6.41;75.08
84995;BME280;75312;47.528;19.016;2024-01-06T01:38:37;97992.97;;;6.44;75.28
84995;BME280;75312;47.528;19.016;2024-01-06T01:39:10;97994.63;;;6.45;75.11
84995;BME280;75312;47.528;19.016;2024-01-06T01:39:41;97994.03;;;6.52;75.31
84995;BME280;75312;47.528;19.016;2024-01-06T01:40:12;97984.94;;;6.56;75.11
84995;BME280;75312;47.528;19.016;2024-01-06T01:40:42;97995.50;;;6.54;74.86
84995;BME280;75312;47.528;19.016;2024-01-06T01:41:15;97983.47;;;6.53;75.34
84995;BME280;75312;47.528;19.016;2024-01-06T01:41:48;97984.81;;;6.57;75.19
84995;BME280;75312;47.528;19.016;2024-01-06T01:42:19;97983.69;;;6.60;75.52
84995;BME280;75312;47.528;19.016;2024-01-06T01:42:49;97977.53;;;6.61;74.95
84995;BME280;75312;47.528;19.016;2024-01-06T01:43:20;97977.97;;;6.56;75.31
84995;BME280;75312;47.528;19.016;2024-01-06T01:43:53;97981.91;;;6.60;75.11
84995;BME280;75312;47.528;19.016;2024-01-06T01:44:30;97987.63;;;6.64;75.55
84995;BME280;75312;47.528;19.016;2024-01-06T01:45:01;97986.69;;;6.65;75.79
84995;BME280;75312;47.528;19.016;2024-01-06T01:45:31;97987.63;;;6.64;75.71
84995;BME280;75312;47.528;19.016;2024-01-06T01:46:04;97984.00;;;6.57;75.64
84995;BME280;75312;47.528;19.016;2024-01-06T01:46:38;97981.69;;;6.54;75.69
84995;BME280;75312;47.528;19.016;2024-01-06T01:47:09;97968.16;;;6.50;76.26
84995;BME280;75312;47.528;19.016;2024-01-06T01:47:40;97969.66;;;6.53;76.09
84995;BME280;75312;47.528;19.016;2024-01-06T01:48:11;97974.69;;;6.54;76.28
84995;BME280;75312;47.528;19.016;2024-01-06T01:48:44;97973.06;;;6.53;76.27
84995;BME280;75312;47.528;19.016;2024-01-06T01:49:15;97976.19;;;6.57;75.78
84995;BME280;75312;47.528;19.016;2024-01-06T01:49:52;97971.81;;;6.57;76.11
84995;BME280;75312;47.528;19.016;2024-01-06T01:50:24;97974.91;;;6.61;75.88
84995;BME280;75312;47.528;19.016;2024-01-06T01:50:57;97974.47;;;6.65;75.53
84995;BME280;75312;47.528;19.016;2024-01-06T01:51:30;97972.69;;;6.66;75.56
84995;BME280;75312;47.528;19.016;2024-01-06T01:52:01;97975.44;;;6.64;75.76
84995;BME280;75312;47.528;19.016;2024-01-06T01:52:32;97963.25;;;6.65;75.55
84995;BME280;75312;47.528;19.016;2024-01-06T01:53:03;97961.00;;;6.70;75.75
84995;BME280;75312;47.528;19.016;2024-01-06T01:53:34;97958.78;;;6.75;75.02
84995;BME280;75312;47.528;19.016;2024-01-06T01:54:08;97963.97;;;6.75;75.20
84995;BME280;75312;47.528;19.016;2024-01-06T01:54:39;97968.38;;;6.74;75.14
84995;BME280;75312;47.528;19.016;2024-01-06T01:55:13;97960.66;;;6.65;75.03
84995;BME280;75312;47.528;19.016;2024-01-06T01:55:44;97968.09;;;6.60;75.43
84995;BME280;75312;47.528;19.016;2024-01-06T01:56:17;97959.63;;;6.58;75.81
84995;BME280;75312;47.528;19.016;2024-01-06T01:56:51;97958.81;;;6.57;75.25
84995;BME280;75312;47.528;19.016;2024-01-06T01:57:24;97967.13;;;6.61;76.10
84995;BME280;75312;47.528;19.016;2024-01-06T01:57:55;97968.75;;;6.62;75.88
84995;BME280;75312;47.528;19.016;2024-01-06T01:58:26;97961.91;;;6.61;75.87
84995;BME280;75312;47.528;19.016;2024-01-06T01:58:59;97955.56;;;6.63;76.24
84995;BME280;75312;47.528;19.016;2024-01-06T01:59:33;97966.66;;;6.65;75.42
84995;BME280;75312;47.528;19.016;2024-01-06T02:00:04;97967.50;;;6.66;75.54
84995;BME280;75312;47.528;19.016;2024-01-06T02:00:36;97967.66;;;6.64;75.84
84995;BME280;75312;47.528;19.016;2024-01-06T02:01:07;97965.97;;;6.63;76.26
84995;BME280;75312;47.528;19.016;2024-01-06T02:01:41;97959.00;;;6.64;75.81
84995;BME280;75312;47.528;19.016;2024-01-06T02:02:12;97961.47;;;6.65;76.01
84995;BME280;75312;47.528;19.016;2024-01-06T02:02:43;97958.34;;;6.62;75.88
84995;BME280;75312;47.528;19.016;2024-01-06T02:03:13;97958.06;;;6.65;76.07
84995;BME280;75312;47.528;19.016;2024-01-06T02:03:45;97961.25;;;6.59;76.16
84995;BME280;75312;47.528;19.016;2024-01-06T02:04:16;97966.59;;;6.57;76.48
84995;BME280;75312;47.528;19.016;2024-01-06T02:04:51;97957.00;;;6.58;76.86
84995;BME280;75312;47.528;19.016;2024-01-06T02:05:21;97957.97;;;6.57;76.30
84995;BME280;75312;47.528;19.016;2024-01-06T02:05:52;97951.50;;;6.61;76.71
84995;BME280;75312;47.528;19.016;2024-01-06T02:06:25;97959.06;;;6.72;76.13
84995;BME280;75312;47.528;19.016;2024-01-06T02:06:58;97955.94;;;6.68;76.23
84995;BME280;75312;47.528;19.016;2024-01-06T02:07:29;97957.59;;;6.69;76.20
84995;BME280;75312;47.528;19.016;2024-01-06T02:07:59;97956.38;;;6.64;76.29
84995;BME280;75312;47.528;19.016;2024-01-06T02:08:30;97958.19;;;6.63;76.47
84995;BME280;75312;47.528;19.016;2024-01-06T02:09:01;97957.91;;;6.66;76.75
84995;BME280;75312;47.528;19.016;2024-01-06T02:09:32;97951.34;;;6.62;76.43
84995;BME280;75312;47.528;19.016;2024-01-06T02:10:08;97951.50;;;6.61;76.79
84995;BME280;75312;47.528;19.016;2024-01-06T02:10:41;97950.47;;;6.54;77.13
84995;BME280;75312;47.528;19.016;2024-01-06T02:11:12;97949.44;;;6.64;76.90
84995;BME280;75312;47.528;19.016;2024-01-06T02:11:45;97949.72;;;6.61;76.86
84995;BME280;75312;47.528;19.016;2024-01-06T02:12:16;97945.84;;;6.65;76.92
84995;BME280;75312;47.528;19.016;2024-01-06T02:12:47;97949.94;;;6.68;76.81
84995;BME280;75312;47.528;19.016;2024-01-06T02:13:22;97952.22;;;6.71;76.34
84995;BME280;75312;47.528;19.016;2024-01-06T02:13:53;97958.56;;;6.68;76.18
84995;BME280;75312;47.528;19.016;2024-01-06T02:14:23;97958.41;;;6.70;76.73
84995;BME280;75312;47.528;19.016;2024-01-06T02:14:54;97951.56;;;6.69;76.89
84995;BME280;75312;47.528;19.016;2024-01-06T02:15:24;97948.81;;;6.70;76.69
84995;BME280;75312;47.528;19.016;2024-01-06T02:15:58;97953.72;;;6.73;76.17
84995;BME280;75312;47.528;19.016;2024-01-06T02:16:28;97948.53;;;6.73;76.14
84995;BME280;75312;47.528;19.016;2024-01-06T02:17:01;97948.59;;;6.64;76.67
84995;BME280;75312;47.528;19.016;2024-01-06T02:17:31;97948.81;;;6.70;76.50
84995;BME280;75312;47.528;19.016;2024-01-06T02:18:02;97951.41;;;6.70;76.37
84995;BME280;75312;47.528;19.016;2024-01-06T02:18:33;97946.34;;;6.69;76.27
84995;BME280;75312;47.528;19.016;2024-01-06T02:19:05;97948.25;;;6.59;76.96
84995;BME280;75312;47.528;19.016;2024-01-06T02:19:40;97950.03;;;6.58;76.87
84995;BME280;75312;47.528;19.016;2024-01-06T02:20:12;97947.13;;;6.61;76.89
84995;BME280;75312;47.528;19.016;2024-01-06T02:20:46;97947.78;;;6.63;76.50
84995;BME280;75312;47.528;19.016;2024-01-06T02:21:17;97949.56;;;6.63;76.82
84995;BME280;75312;47.528;19.016;2024-01-06T02:21:53;97952.69;;;6.66;76.95
84995;BME280;75312;47.528;19.016;2024-01-06T02:22:24;97953.78;;;6.64;76.62
84995;BME280;75312;47.528;19.016;2024-01-06T02:22:54;97957.91;;;6.66;76.94
84995;BME280;75312;47.528;19.016;2024-01-06T02:23:27;97949.28;;;6.66;76.29
84995;BME280;75312;47.528;19.016;2024-01-06T02:24:02;97954.63;;;6.64;76.50
84995;BME280;75312;47.528;19.016;2024-01-06T02:24:32;97951.50;;;6.61;76.92
84995;BME280;75312;47.528;19.016;2024-01-06T02:25:05;97946.94;;;6.63;77.25
84995;BME280;75312;47.528;19.016;2024-01-06T02:25:42;97943.91;;;6.67;76.86
84995;BME280;75312;47.528;19.016;2024-01-06T02:26:16;97949.28;;;6.66;76.89
84995;BME280;75312;47.528;19.016;2024-01-06T02:26:46;97945.97;;;6.64;76.32
84995;BME280;75312;47.528;19.016;2024-01-06T02:27:17;97949.56;;;6.63;76.41
84995;BME280;75312;47.528;19.016;2024-01-06T02:27:48;97946.94;;;6.63;76.54
84995;BME280;75312;47.528;19.016;2024-01-06T02:28:18;97947.31;;;6.68;76.59
84995;BME280;75312;47.528;19.016;2024-01-06T02:28:56;97949.94;;;6.68;76.29
84995;BME280;75312;47.528;19.016;2024-01-06T02:29:27;97944.88;;;6.66;76.66
84995;BME280;75312;47.528;19.016;2024-01-06T02:29:57;97946.66;;;6.66;76.38
84995;BME280;75312;47.528;19.016;2024-01-06T02:30:28;97944.88;;;6.66;77.01
84995;BME280;75312;47.528;19.016;2024-01-06T02:30:58;97957.75;;;6.68;76.78
84995;BME280;75312;47.528;19.016;2024-01-06T02:31:31;97944.06;;;6.66;76.85
84995;BME280;75312;47.528;19.016;2024-01-06T02:32:05;97941.47;;;6.66;76.07
84995;BME280;75312;47.528;19.016;2024-01-06T02:32:35;97949.44;;;6.64;76.22
84995;BME280;75312;47.528;19.016;2024-01-06T02:33:06;97942.72;;;6.62;76.77
84995;BME280;75312;47.528;19.016;2024-01-06T02:33:36;97942.13;;;6.68;76.48
84995;BME280;75312;47.528;19.016;2024-01-06T02:34:07;97942.13;;;6.68;76.52
84995;BME280;75312;47.528;19.016;2024-01-06T02:34:38;97948.47;;;6.65;76.77
84995;BME280;75312;47.528;19.016;2024-01-06T02:35:09;97937.44;;;6.54;76.61
84995;BME280;75312;47.528;19.016;2024-01-06T02:35:41;97942.16;;;6.50;77.29
84995;BME280;75312;47.528;19.016;2024-01-06T02:36:12;97938.66;;;6.41;77.25
84995;BME280;75312;47.528;19.016;2024-01-06T02:36:46;97938.06;;;6.30;77.66
84995;BME280;75312;47.528;19.016;2024-01-06T02:37:19;97939.34;;;6.26;77.82
84995;BME280;75312;47.528;19.016;2024-01-06T02:37:49;97935.34;;;6.31;77.39
84995;BME280;75312;47.528;19.016;2024-01-06T02:38:20;97936.16;;;6.32;77.38
84995;BME280;75312;47.528;19.016;2024-01-06T02:38:53;97936.81;;;6.34;77.03
84995;BME280;75312;47.528;19.016;2024-01-06T02:39:24;97940.59;;;6.39;76.95
84995;BME280;75312;47.528;19.016;2024-01-06T02:39:56;97939.16;;;6.45;77.02
84995;BME280;75312;47.528;19.016;2024-01-06T02:40:29;97935.16;;;6.51;76.23
84995;BME280;75312;47.528;19.016;2024-01-06T02:41:00;97935.00;;;6.52;76.25
84995;BME280;75312;47.528;19.016;2024-01-06T02:41:30;97938.06;;;6.47;76.27
84995;BME280;75312;47.528;19.016;2024-01-06T02:42:01;97936.72;;;6.43;76.30
84995;BME280;75312;47.528;19.016;2024-01-06T02:42:33;97937.31;;;6.37;77.33
84995;BME280;75312;47.528;19.016;2024-01-06T02:43:04;97937.63;;;6.34;77.39
84995;BME280;75312;47.528;19.016;2024-01-06T02:43:35;97935.34;;;6.31;77.43
84995;BME280;75312;47.528;19.016;2024-01-06T02:44:05;97937.47;;;6.36;77.36
84995;BME280;75312;47.528;19.016;2024-01-06T02:44:36;97934.28;;;6.42;77.36
84995;BME280;75312;47.528;19.016;2024-01-06T02:45:07;97927.44;;;6.41;76.78
84995;BME280;75312;47.528;19.016;2024-01-06T02:45:42;97934.44;;;6.40;77.12
84995;BME280;75312;47.528;19.016;2024-01-06T02:46:13;97924.84;;;6.41;76.96
84995;BME280;75312;47.528;19.016;2024-01-06T02:46:43;97932.66;;;6.41;77.03
84995;BME280;75312;47.528;19.016;2024-01-06T02:47:14;97926.16;;;6.45;76.96
84995;BME280;75312;47.528;19.016;2024-01-06T02:47:44;97930.41;;;6.46;76.33
84995;BME280;75312;47.528;19.016;2024-01-06T02:48:15;97926.00;;;6.46;76.45
84995;BME280;75312;47.528;19.016;2024-01-06T02:48:48;97919.41;;;6.34;77.45
84995;BME280;75312;47.528;19.016;2024-01-06T02:49:19;97927.59;;;6.39;76.92
84995;BME280;75312;47.528;19.016;2024-01-06T02:49:51;97931.16;;;6.38;77.08
84995;BME280;75312;47.528;19.016;2024-01-06T02:50:24;97924.31;;;6.37;77.56
84995;BME280;75312;47.528;19.016;2024-01-06T02:50:55;97928.69;;;6.37;77.26
84995;BME280;75312;47.528;19.016;2024-01-06T02:51:25;97927.88;;;6.36;77.46